createdAt,value
2023-04-18T00:02:08.916Z,97.38
2023-04-18T00:04:35.328Z,98.08
2023-04-18T00:07:01.621Z,98.50
2023-04-18T00:09:28.078Z,98.88
2023-04-18T00:11:54.487Z,99.23
2023-04-18T00:14:20.878Z,100.00
2023-04-18T00:16:48.396Z,100.00
2023-04-18T00:19:14.764Z,100.00
2023-04-18T00:21:41.169Z,100.00
2023-04-18T00:24:07.636Z,100.00
2023-04-18T00:26:33.976Z,100.00
2023-04-18T00:29:00.343Z,100.00
2023-04-18T00:31:26.798Z,100.00
2023-04-18T00:33:53.105Z,100.00
2023-04-18T00:36:19.514Z,100.00
2023-04-18T00:38:45.923Z,100.00
2023-04-18T00:41:12.303Z,100.00
2023-04-18T00:43:38.696Z,100.00
2023-04-18T00:46:05.279Z,100.00
2023-04-18T00:48:31.603Z,100.00
2023-04-18T00:50:57.974Z,100.00
2023-04-18T00:53:24.428Z,100.00
2023-04-18T00:55:50.832Z,100.00
2023-04-18T00:58:17.249Z,100.00
2023-04-18T01:00:43.657Z,100.00
2023-04-18T01:03:10.222Z,100.00
2023-04-18T01:05:36.425Z,100.00
2023-04-18T01:08:02.794Z,100.00
2023-04-18T01:10:29.221Z,100.00
2023-04-18T01:12:55.638Z,100.00
2023-04-18T01:15:21.999Z,100.00
2023-04-18T01:17:48.433Z,100.00
2023-04-18T01:20:14.830Z,100.00
2023-04-18T01:22:41.311Z,100.00
2023-04-18T01:25:07.713Z,100.00
2023-04-18T01:27:34.079Z,100.00
2023-04-18T01:30:00.493Z,100.00
2023-04-18T01:32:26.941Z,100.00
2023-04-18T01:34:53.289Z,100.00
2023-04-18T01:37:19.663Z,100.00
2023-04-18T01:39:46.040Z,100.00
2023-04-18T01:42:12.427Z,100.00
2023-04-18T01:44:38.796Z,100.00
2023-04-18T01:47:05.175Z,100.00
2023-04-18T01:49:31.557Z,100.00
2023-04-18T01:51:57.975Z,100.00
2023-04-18T01:54:24.380Z,100.00
2023-04-18T01:56:50.758Z,100.00
2023-04-18T01:59:17.176Z,100.00
2023-04-18T02:01:43.618Z,100.00
2023-04-18T02:04:09.998Z,100.00
2023-04-18T02:06:36.383Z,100.00
2023-04-18T02:09:02.760Z,100.00
2023-04-18T02:11:29.144Z,100.00
2023-04-18T06:21:35.980Z,100.00
2023-04-18T06:24:02.460Z,100.00
2023-04-18T06:26:28.807Z,100.00
2023-04-18T06:28:55.515Z,100.00
2023-04-18T06:31:21.940Z,99.48
2023-04-18T06:33:48.340Z,95.85
2023-04-18T06:36:14.758Z,94.99
2023-04-18T06:38:41.233Z,94.62
2023-04-18T06:41:07.765Z,94.70
2023-04-18T06:43:34.230Z,94.56
2023-04-18T06:46:00.642Z,94.75
2023-04-18T06:48:27.002Z,93.46
2023-04-18T06:50:53.585Z,91.71
2023-04-18T06:53:20.009Z,89.95
2023-04-18T06:55:46.396Z,89.81
2023-04-18T06:58:12.796Z,88.37
2023-04-18T07:00:39.503Z,89.48
2023-04-18T07:03:07.610Z,89.31
2023-04-18T07:05:32.381Z,86.27
2023-04-18T07:07:58.792Z,87.06
2023-04-18T07:10:25.504Z,86.35
2023-04-18T07:12:52.018Z,85.33
2023-04-18T07:15:18.387Z,86.49
2023-04-18T07:17:44.828Z,87.93
2023-04-18T07:20:12.366Z,87.56
2023-04-18T07:22:37.550Z,85.41
2023-04-18T07:25:04.215Z,86.25
2023-04-18T07:27:30.713Z,82.84
2023-04-18T07:29:57.187Z,81.40
2023-04-18T07:32:23.732Z,81.28
2023-04-18T07:34:50.048Z,78.30
2023-04-18T07:37:16.412Z,78.37
2023-04-18T07:39:42.844Z,78.32
2023-04-18T07:42:09.245Z,74.40
2023-04-18T07:44:35.728Z,74.70
2023-04-18T07:47:02.194Z,74.96
2023-04-18T07:49:28.570Z,75.04
2023-04-18T07:51:54.976Z,73.17
2023-04-18T07:54:21.410Z,70.36
2023-04-18T07:56:47.826Z,72.16
2023-04-18T07:59:14.455Z,72.46
2023-04-18T08:01:40.659Z,70.22
2023-04-18T08:04:07.245Z,69.86
2023-04-18T08:06:33.550Z,70.38
2023-04-18T08:08:59.927Z,68.15
2023-04-18T08:11:26.387Z,69.14
2023-04-18T08:13:52.803Z,66.98
2023-04-18T08:16:19.228Z,66.86
2023-04-18T08:18:45.584Z,65.79
2023-04-18T08:21:12.002Z,65.06
2023-04-18T08:23:38.506Z,65.07
2023-04-18T08:26:04.825Z,63.77
2023-04-18T08:28:31.222Z,61.70
2023-04-18T08:30:57.590Z,61.80
2023-04-18T08:33:26.147Z,61.86
2023-04-18T08:35:52.582Z,59.32
2023-04-18T08:38:23.304Z,56.99
2023-04-18T08:40:49.714Z,58.07
2023-04-18T08:43:16.073Z,57.40
2023-04-18T08:45:42.644Z,58.01
2023-04-18T08:48:08.953Z,59.07
2023-04-18T08:50:35.292Z,58.81
2023-04-18T08:53:01.663Z,56.75
2023-04-18T08:55:28.377Z,56.15
2023-04-18T08:57:55.155Z,53.20
2023-04-18T09:00:21.800Z,53.13
2023-04-18T09:02:48.246Z,49.97
2023-04-18T09:05:14.597Z,45.58
2023-04-18T09:07:40.931Z,51.08
2023-04-18T09:10:07.311Z,54.12
2023-04-18T09:12:33.614Z,55.50
2023-04-18T09:15:00.019Z,57.83
2023-04-18T09:17:26.348Z,61.81
2023-04-18T09:19:52.731Z,64.30
2023-04-18T09:22:19.155Z,65.69
2023-04-18T09:24:45.514Z,66.02
2023-04-18T09:27:11.899Z,66.81
2023-04-18T09:29:38.267Z,68.05
2023-04-18T09:32:04.681Z,68.90
2023-04-18T09:34:32.181Z,69.04
2023-04-18T09:36:58.720Z,68.84
2023-04-18T09:39:25.091Z,64.06
2023-04-18T09:41:54.147Z,59.24
2023-04-18T09:44:20.704Z,62.26
2023-04-18T09:46:47.584Z,62.50
2023-04-18T09:49:13.529Z,63.69
2023-04-18T09:51:40.121Z,64.73
2023-04-18T09:54:06.473Z,66.14
2023-04-18T09:56:32.844Z,66.58
2023-04-18T09:58:59.251Z,65.56
2023-04-18T10:01:25.862Z,64.22
2023-04-18T10:03:52.269Z,63.90
2023-04-18T10:06:18.644Z,64.03
2023-04-18T10:08:45.080Z,63.57
2023-04-18T10:11:11.453Z,63.87
2023-04-18T10:13:37.842Z,63.10
2023-04-18T10:16:04.288Z,63.38
2023-04-18T10:18:30.672Z,64.49
2023-04-18T10:20:57.003Z,63.63
2023-04-18T10:23:23.434Z,62.83
2023-04-18T10:25:49.888Z,63.28
2023-04-18T10:28:16.289Z,63.88
2023-04-18T10:30:42.649Z,64.29
2023-04-18T10:33:18.353Z,64.37
2023-04-18T10:35:35.556Z,64.44
2023-04-18T10:38:01.977Z,63.33
2023-04-18T10:40:28.366Z,63.25
2023-04-18T10:42:54.701Z,62.85
2023-04-18T10:45:21.211Z,63.21
2023-04-18T10:47:47.688Z,62.04
2023-04-18T10:50:14.093Z,60.58
2023-04-18T10:52:40.539Z,60.32
2023-04-18T10:55:06.938Z,60.80
2023-04-18T10:57:33.377Z,59.24
2023-04-18T10:59:59.720Z,57.03
2023-04-18T11:02:26.410Z,54.43
2023-04-18T11:04:52.596Z,51.76
2023-04-18T11:07:20.105Z,51.16
2023-04-18T11:09:46.643Z,47.31
2023-04-18T11:12:12.998Z,49.12
2023-04-18T11:14:39.480Z,52.99
2023-04-18T11:17:05.861Z,54.28
2023-04-18T11:19:32.225Z,54.75
2023-04-18T11:21:58.604Z,54.89
2023-04-18T11:24:24.973Z,56.03
2023-04-18T11:26:51.620Z,55.76
2023-04-18T11:29:17.984Z,54.64
2023-04-18T11:31:44.417Z,51.37
2023-04-18T11:34:11.176Z,53.69
2023-04-18T11:36:37.505Z,54.87
2023-04-18T11:39:03.917Z,56.38
2023-04-18T11:41:30.326Z,58.65
2023-04-18T11:43:56.748Z,60.04
2023-04-18T11:46:23.232Z,63.27
2023-04-18T11:48:49.537Z,65.20
2023-04-18T11:51:15.898Z,68.15
2023-04-18T11:53:42.349Z,73.01
2023-04-18T11:56:08.980Z,75.62
2023-04-18T11:58:35.424Z,76.88
2023-04-18T12:01:01.872Z,78.41
2023-04-18T12:03:28.398Z,78.30
2023-04-18T12:05:54.769Z,76.54
2023-04-18T12:08:21.114Z,77.16
2023-04-18T12:10:47.672Z,79.80
2023-04-18T12:13:14.020Z,77.91
2023-04-18T12:15:40.498Z,76.35
2023-04-18T12:18:07.190Z,76.76
2023-04-18T12:20:34.622Z,76.77
2023-04-18T12:23:01.022Z,77.37
2023-04-18T12:25:27.872Z,77.50
2023-04-18T12:27:53.936Z,76.57
2023-04-18T12:30:20.292Z,76.26
2023-04-18T12:32:46.794Z,77.09
2023-04-18T12:35:13.119Z,76.13
2023-04-18T12:37:39.683Z,76.05
2023-04-18T12:40:06.095Z,75.28
2023-04-18T12:42:32.488Z,76.43
2023-04-18T12:44:58.898Z,76.31
2023-04-18T12:47:25.426Z,75.67
2023-04-18T12:49:51.816Z,76.96
2023-04-18T12:52:18.196Z,76.08
2023-04-18T12:54:44.865Z,76.90
2023-04-18T12:57:12.430Z,77.06
2023-04-18T12:59:38.830Z,77.01
2023-04-18T13:02:05.403Z,76.14
2023-04-18T13:04:34.221Z,76.21
2023-04-18T13:07:00.254Z,76.16
2023-04-18T13:09:26.707Z,76.19
2023-04-18T13:11:53.788Z,76.71
2023-04-18T13:14:20.208Z,75.21
2023-04-18T13:16:46.696Z,75.10
2023-04-18T13:19:13.163Z,74.46
2023-04-18T13:21:39.476Z,74.66
2023-04-18T13:24:05.910Z,74.47
2023-04-18T13:26:32.345Z,75.20
2023-04-18T13:28:58.722Z,74.04
2023-04-18T13:31:25.388Z,73.69
2023-04-18T13:33:51.731Z,72.85
2023-04-18T13:36:18.160Z,72.64
2023-04-18T13:38:44.617Z,72.71
2023-04-18T13:41:13.711Z,72.76
2023-04-18T13:43:39.547Z,71.86
2023-04-18T13:46:05.979Z,72.87
2023-04-18T13:48:32.468Z,73.37
2023-04-18T13:50:58.840Z,73.00
2023-04-18T13:53:25.213Z,73.38
2023-04-18T13:55:51.647Z,73.00
2023-04-18T13:58:18.097Z,73.00
2023-04-18T14:00:44.560Z,72.60
2023-04-18T14:03:11.033Z,72.24
2023-04-18T14:05:37.262Z,73.19
2023-04-18T14:08:03.704Z,73.80
2023-04-18T14:10:31.167Z,72.81
2023-04-18T14:12:57.611Z,72.66
2023-04-18T14:15:23.977Z,73.60
2023-04-18T14:17:50.611Z,73.04
2023-04-18T14:20:17.043Z,72.76
2023-04-18T14:22:43.484Z,72.13
2023-04-18T14:25:09.851Z,72.70
2023-04-18T14:27:36.283Z,72.74
2023-04-18T14:30:02.698Z,71.91
2023-04-18T14:32:29.131Z,72.64
2023-04-18T14:34:55.545Z,73.31
2023-04-18T14:37:21.915Z,73.42
2023-04-18T14:39:48.360Z,74.16
2023-04-18T14:42:14.727Z,73.82
2023-04-18T14:44:41.119Z,73.92
2023-04-18T14:47:07.650Z,73.57
2023-04-18T14:49:34.016Z,72.02
2023-04-18T14:52:00.427Z,72.71
2023-04-18T14:54:26.853Z,72.46
2023-04-18T14:56:53.287Z,72.34
2023-04-18T14:59:19.978Z,72.06
2023-04-18T15:01:46.171Z,71.72
2023-04-18T15:04:13.094Z,71.11
2023-04-18T15:06:38.931Z,70.54
2023-04-18T15:09:05.306Z,70.79
2023-04-18T15:11:31.716Z,70.91
2023-04-18T15:13:58.151Z,71.49
2023-04-18T15:16:24.554Z,71.75
2023-04-18T15:18:50.903Z,71.82
2023-04-18T15:21:17.310Z,72.02
2023-04-18T15:23:43.723Z,72.09
2023-04-18T15:26:10.119Z,72.04
2023-04-18T15:28:36.780Z,72.84
2023-04-18T15:31:03.162Z,72.95
2023-04-18T15:33:29.557Z,73.18
2023-04-18T15:35:55.990Z,73.49
2023-04-18T15:38:22.383Z,74.05
2023-04-18T15:40:49.046Z,74.12
2023-04-18T15:43:15.488Z,74.20
2023-04-18T15:45:42.044Z,74.36
2023-04-18T15:48:08.448Z,74.34
2023-04-18T15:50:34.908Z,74.76
2023-04-18T15:53:01.373Z,74.73
2023-04-18T15:55:27.751Z,74.81
2023-04-18T15:57:54.178Z,74.73
2023-04-18T16:00:22.758Z,75.01
2023-04-18T16:02:49.466Z,75.17
2023-04-18T16:05:15.784Z,76.28
2023-04-18T16:07:42.312Z,76.68
2023-04-18T16:10:08.609Z,76.32
2023-04-18T16:12:34.985Z,76.83
2023-04-18T16:15:01.503Z,77.15
2023-04-18T16:17:27.863Z,77.65
2023-04-18T16:19:55.302Z,77.77
2023-04-18T16:22:21.692Z,78.26
2023-04-18T16:24:48.105Z,78.33
2023-04-18T16:27:14.525Z,78.47
2023-04-18T16:29:40.940Z,77.97
2023-04-18T16:32:07.366Z,78.78
2023-04-18T16:34:33.732Z,79.05
2023-04-18T16:37:00.251Z,79.20
2023-04-18T16:39:26.679Z,78.90
2023-04-18T16:41:53.115Z,78.99
2023-04-18T16:44:19.646Z,79.17
2023-04-18T16:46:46.112Z,79.36
2023-04-18T16:49:12.497Z,78.93
2023-04-18T16:51:39.018Z,79.45
2023-04-18T16:54:05.409Z,79.73
2023-04-18T16:56:31.785Z,80.12
2023-04-18T16:58:58.213Z,80.25
2023-04-18T17:01:25.202Z,80.36
2023-04-18T17:03:51.672Z,81.04
2023-04-18T17:06:17.955Z,81.43
2023-04-18T17:08:46.820Z,81.74
2023-04-18T17:11:13.272Z,81.73
2023-04-18T17:13:39.663Z,82.06
2023-04-18T17:16:06.143Z,82.31
2023-04-18T17:18:32.489Z,82.83
2023-04-18T17:20:58.909Z,83.17
2023-04-18T17:23:25.288Z,83.58
2023-04-18T17:25:55.523Z,83.34
2023-04-18T17:28:22.319Z,83.71
2023-04-18T17:30:48.987Z,84.05
2023-04-18T17:33:15.367Z,83.94
2023-04-18T17:35:41.782Z,84.16
2023-04-18T17:38:08.792Z,84.49
2023-04-18T17:40:35.176Z,84.70
2023-04-18T17:43:01.625Z,84.99
2023-04-18T17:45:28.396Z,84.96
2023-04-18T17:48:06.751Z,84.92
2023-04-18T17:50:33.440Z,84.68
2023-04-18T17:52:59.825Z,84.75
2023-04-18T17:55:26.272Z,84.75
2023-04-18T17:57:52.684Z,84.79
2023-04-18T18:00:19.065Z,84.99
2023-04-18T18:02:45.617Z,84.78
2023-04-18T18:05:11.873Z,85.12
2023-04-18T18:07:38.296Z,85.10
2023-04-18T18:10:04.664Z,84.90
2023-04-18T18:12:31.135Z,84.65
2023-04-18T18:14:57.482Z,84.33
2023-04-18T18:17:23.900Z,84.21
2023-04-18T18:19:50.389Z,83.99
2023-04-18T18:22:16.797Z,84.29
2023-04-18T18:24:43.173Z,84.36
2023-04-18T18:27:09.573Z,84.29
2023-04-18T18:29:35.964Z,84.53
2023-04-18T18:32:02.489Z,84.56
2023-04-18T18:34:28.890Z,84.63
2023-04-18T18:36:55.348Z,84.60
2023-04-18T18:39:21.711Z,84.52
2023-04-18T18:41:48.160Z,84.50
2023-04-18T18:44:14.575Z,84.28
2023-04-18T18:46:42.983Z,83.71
2023-04-18T18:49:07.389Z,83.52
2023-04-18T18:51:33.835Z,83.41
2023-04-18T18:54:00.244Z,83.28
2023-04-18T18:56:26.632Z,83.15
2023-04-18T18:58:53.008Z,83.07
2023-04-18T19:01:19.490Z,83.05
2023-04-18T19:03:45.929Z,83.08
2023-04-18T19:06:12.224Z,83.01
2023-04-18T19:08:38.665Z,83.23
2023-04-18T19:11:05.040Z,83.21
2023-04-18T19:13:31.436Z,83.03
2023-04-18T19:15:57.879Z,83.16
2023-04-18T19:18:24.329Z,83.62
2023-04-18T19:20:50.708Z,83.33
2023-04-18T19:23:17.113Z,83.40
2023-04-18T19:25:43.550Z,83.54
2023-04-18T19:28:10.079Z,83.32
2023-04-18T19:30:36.470Z,83.39
2023-04-18T19:33:02.982Z,83.41
2023-04-18T19:35:29.338Z,83.43
2023-04-18T19:37:55.700Z,83.42
2023-04-18T19:40:22.229Z,83.49
2023-04-18T19:42:48.600Z,83.56
2023-04-18T19:45:15.029Z,83.39
2023-04-18T19:47:41.417Z,83.27
2023-04-18T19:50:07.786Z,83.43
2023-04-18T19:52:34.345Z,83.30
2023-04-18T19:55:00.775Z,83.28
2023-04-18T19:57:27.366Z,83.44
2023-04-18T19:59:53.854Z,83.79
2023-04-18T20:02:20.465Z,84.06
2023-04-18T20:04:46.811Z,84.08
2023-04-18T20:07:13.175Z,84.15
2023-04-18T20:09:39.563Z,84.26
